sensor_id;sensor_type;location;lat;lon;timestamp;pressure;altitude;pressure_sealevel;temperature;humidity
26807;BME280;14380;49.910;6.792;2023-04-20T00:01:27;99011.72;;;4.87;76.58
26807;BME280;14380;49.910;6.792;2023-04-20T00:03:53;99013.13;;;4.99;74.49
26807;BME280;14380;49.910;6.792;2023-04-20T00:06:21;99007.97;;;4.97;74.47
26807;BME280;14380;49.910;6.792;2023-04-20T00:08:51;98999.47;;;4.89;73.77
26807;BME280;14380;49.910;6.792;2023-04-20T00:11:17;98999.59;;;4.84;74.83
26807;BME280;14380;49.910;6.792;2023-04-20T00:13:43;98992.25;;;4.66;78.12
26807;BME280;14380;49.910;6.792;2023-04-20T00:16:10;99000.19;;;4.63;76.14
26807;BME280;14380;49.910;6.792;2023-04-20T00:18:36;98993.31;;;4.58;76.43
26807;BME280;14380;49.910;6.792;2023-04-20T00:21:04;98989.03;;;4.56;76.24
26807;BME280;14380;49.910;6.792;2023-04-20T00:23:30;98984.78;;;4.52;76.80
26807;BME280;14380;49.910;6.792;2023-04-20T00:25:58;98976.16;;;4.48;78.23
26807;BME280;14380;49.910;6.792;2023-04-20T00:28:25;98971.81;;;4.47;78.13
26807;BME280;14380;49.910;6.792;2023-04-20T00:30:51;98981.81;;;4.32;78.18
26807;BME280;14380;49.910;6.792;2023-04-20T00:33:18;98969.34;;;4.42;78.42
26807;BME280;14380;49.910;6.792;2023-04-20T00:35:45;98958.16;;;4.37;77.63
26807;BME280;14380;49.910;6.792;2023-04-20T00:38:12;98956.56;;;4.31;77.37
26807;BME280;14380;49.910;6.792;2023-04-20T00:40:38;98955.69;;;4.31;77.97
26807;BME280;14380;49.910;6.792;2023-04-20T00:43:09;98961.28;;;4.17;78.74
26807;BME280;14380;49.910;6.792;2023-04-20T00:45:36;98955.22;;;4.16;78.75
26807;BME280;14380;49.910;6.792;2023-04-20T00:48:03;98957.03;;;4.13;79.93
26807;BME280;14380;49.910;6.792;2023-04-20T00:50:30;98950.50;;;3.96;79.71
26807;BME280;14380;49.910;6.792;2023-04-20T00:52:56;98954.09;;;3.92;80.34
26807;BME280;14380;49.910;6.792;2023-04-20T00:55:23;98951.56;;;3.89;81.72
26807;BME280;14380;49.910;6.792;2023-04-20T00:57:50;98948.03;;;3.90;82.18
26807;BME280;14380;49.910;6.792;2023-04-20T01:00:18;98947.38;;;3.82;80.74
26807;BME280;14380;49.910;6.792;2023-04-20T01:02:45;98940.38;;;3.82;81.59
26807;BME280;14380;49.910;6.792;2023-04-20T01:05:12;98942.16;;;3.82;81.85
26807;BME280;14380;49.910;6.792;2023-04-20T01:07:38;98931.47;;;3.91;81.67
26807;BME280;14380;49.910;6.792;2023-04-20T01:10:06;98944.06;;;3.75;80.54
26807;BME280;14380;49.910;6.792;2023-04-20T01:12:33;98932.59;;;3.81;80.70
26807;BME280;14380;49.910;6.792;2023-04-20T01:15:01;98926.69;;;3.72;80.43
26807;BME280;14380;49.910;6.792;2023-04-20T01:17:29;98921.53;;;3.71;81.32
26807;BME280;14380;49.910;6.792;2023-04-20T01:19:55;98919.00;;;3.68;82.51
26807;BME280;14380;49.910;6.792;2023-04-20T01:22:25;98923.34;;;3.67;82.16
26807;BME280;14380;49.910;6.792;2023-04-20T01:24:52;98918.50;;;3.52;82.70
26807;BME280;14380;49.910;6.792;2023-04-20T01:27:18;98918.53;;;3.50;82.35
26807;BME280;14380;49.910;6.792;2023-04-20T01:29:45;98911.72;;;3.45;83.96
26807;BME280;14380;49.910;6.792;2023-04-20T01:32:12;98913.31;;;3.50;82.42
26807;BME280;14380;49.910;6.792;2023-04-20T01:34:38;98908.22;;;3.46;82.20
26807;BME280;14380;49.910;6.792;2023-04-20T01:37:05;98912.00;;;3.32;83.77
26807;BME280;14380;49.910;6.792;2023-04-20T01:39:34;98910.28;;;3.31;84.53
26807;BME280;14380;49.910;6.792;2023-04-20T01:42:00;98892.97;;;3.29;82.14
26807;BME280;14380;49.910;6.792;2023-04-20T01:44:27;98890.91;;;3.41;83.02
26807;BME280;14380;49.910;6.792;2023-04-20T01:46:53;98891.69;;;3.07;84.52
26807;BME280;14380;49.910;6.792;2023-04-20T01:49:20;98893.38;;;3.10;86.11
26807;BME280;14380;49.910;6.792;2023-04-20T01:51:46;98887.38;;;3.06;84.45
26807;BME280;14380;49.910;6.792;2023-04-20T01:54:13;98876.00;;;3.09;85.00
26807;BME280;14380;49.910;6.792;2023-04-20T01:56:41;98874.16;;;3.12;85.68
26807;BME280;14380;49.910;6.792;2023-04-20T01:59:07;98877.84;;;3.05;85.43
26807;BME280;14380;49.910;6.792;2023-04-20T02:01:34;98870.06;;;3.02;85.36
26807;BME280;14380;49.910;6.792;2023-04-20T02:04:00;98867.63;;;2.94;84.63
26807;BME280;14380;49.910;6.792;2023-04-20T02:06:27;98860.75;;;2.92;86.31
26807;BME280;14380;49.910;6.792;2023-04-20T02:08:53;98863.28;;;2.93;87.63
26807;BME280;14380;49.910;6.792;2023-04-20T02:11:19;98865.00;;;2.96;86.22
26807;BME280;14380;49.910;6.792;2023-04-20T02:13:48;98870.38;;;2.88;85.99
26807;BME280;14380;49.910;6.792;2023-04-20T02:16:15;98869.78;;;2.75;86.66
26807;BME280;14380;49.910;6.792;2023-04-20T02:18:43;98859.47;;;2.71;88.21
26807;BME280;14380;49.910;6.792;2023-04-20T02:21:09;98857.25;;;2.93;87.45
26807;BME280;14380;49.910;6.792;2023-04-20T02:23:36;98849.47;;;2.90;85.88
26807;BME280;14380;49.910;6.792;2023-04-20T02:26:03;98851.53;;;2.75;87.26
26807;BME280;14380;49.910;6.792;2023-04-20T02:28:29;98843.63;;;2.80;87.77
26807;BME280;14380;49.910;6.792;2023-04-20T02:30:57;98845.09;;;2.92;86.50
26807;BME280;14380;49.910;6.792;2023-04-20T02:33:23;98842.63;;;2.86;86.92
26807;BME280;14380;49.910;6.792;2023-04-20T02:35:50;98843.78;;;2.72;88.13
26807;BME280;14380;49.910;6.792;2023-04-20T02:38:16;98837.66;;;2.75;87.07
26807;BME280;14380;49.910;6.792;2023-04-20T02:40:43;98827.91;;;2.83;87.88
26807;BME280;14380;49.910;6.792;2023-04-20T02:43:09;98828.78;;;2.43;90.86
26807;BME280;14380;49.910;6.792;2023-04-20T02:45:36;98823.34;;;2.53;88.60
26807;BME280;14380;49.910;6.792;2023-04-20T02:48:04;98821.84;;;2.42;89.93
26807;BME280;14380;49.910;6.792;2023-04-20T02:50:31;98816.28;;;2.57;90.24
26807;BME280;14380;49.910;6.792;2023-04-20T02:52:59;98821.38;;;2.63;90.37
26807;BME280;14380;49.910;6.792;2023-04-20T02:55:25;98820.28;;;2.34;91.44
26807;BME280;14380;49.910;6.792;2023-04-20T02:57:52;98822.06;;;2.31;90.12
26807;BME280;14380;49.910;6.792;2023-04-20T03:00:19;98824.41;;;2.43;89.15
26807;BME280;14380;49.910;6.792;2023-04-20T03:02:45;98820.63;;;2.17;91.40
26807;BME280;14380;49.910;6.792;2023-04-20T03:05:13;98821.16;;;2.32;90.83
26807;BME280;14380;49.910;6.792;2023-04-20T03:07:40;98819.09;;;2.49;88.38
26807;BME280;14380;49.910;6.792;2023-04-20T03:10:07;98819.09;;;2.48;88.32
26807;BME280;14380;49.910;6.792;2023-04-20T03:12:34;98816.56;;;2.45;89.60
26807;BME280;14380;49.910;6.792;2023-04-20T03:15:02;98813.16;;;2.41;88.64
26807;BME280;14380;49.910;6.792;2023-04-20T03:17:29;98811.38;;;2.43;88.02
26807;BME280;14380;49.910;6.792;2023-04-20T03:19:55;98809.59;;;2.45;88.04
26807;BME280;14380;49.910;6.792;2023-04-20T03:22:23;98808.84;;;2.42;88.01
26807;BME280;14380;49.910;6.792;2023-04-20T03:24:49;98820.56;;;2.19;92.33
26807;BME280;14380;49.910;6.792;2023-04-20T03:27:16;98805.34;;;2.41;90.06
26807;BME280;14380;49.910;6.792;2023-04-20T03:29:43;98811.75;;;2.25;92.90
26807;BME280;14380;49.910;6.792;2023-04-20T03:32:09;98810.09;;;2.22;94.82
26807;BME280;14380;49.910;6.792;2023-04-20T03:34:36;98806.88;;;2.09;94.97
26807;BME280;14380;49.910;6.792;2023-04-20T03:37:02;98802.63;;;2.05;95.96
26807;BME280;14380;49.910;6.792;2023-04-20T03:39:30;98793.00;;;2.08;95.78
26807;BME280;14380;49.910;6.792;2023-04-20T03:41:56;98799.72;;;2.19;97.43
26807;BME280;14380;49.910;6.792;2023-04-20T03:44:23;98805.00;;;2.16;98.19
26807;BME280;14380;49.910;6.792;2023-04-20T03:46:53;98802.94;;;2.32;96.77
26807;BME280;14380;49.910;6.792;2023-04-20T03:49:22;98801.84;;;2.42;96.43
26807;BME280;14380;49.910;6.792;2023-04-20T03:51:49;98795.69;;;2.46;96.50
26807;BME280;14380;49.910;6.792;2023-04-20T03:54:16;98792.91;;;2.54;97.91
26807;BME280;14380;49.910;6.792;2023-04-20T03:56:43;98791.50;;;2.78;96.78
26807;BME280;14380;49.910;6.792;2023-04-20T03:59:10;98797.84;;;2.26;97.33
26807;BME280;14380;49.910;6.792;2023-04-20T04:01:37;98791.25;;;2.50;96.71
26807;BME280;14380;49.910;6.792;2023-04-20T04:04:03;98794.25;;;2.72;95.92
26807;BME280;14380;49.910;6.792;2023-04-20T04:06:30;98789.00;;;2.74;97.25
26807;BME280;14380;49.910;6.792;2023-04-20T04:08:57;98780.28;;;2.75;96.78
26807;BME280;14380;49.910;6.792;2023-04-20T04:11:23;98786.16;;;2.85;99.59
26807;BME280;14380;49.910;6.792;2023-04-20T04:13:56;98783.41;;;2.89;97.10
26807;BME280;14380;49.910;6.792;2023-04-20T04:16:23;98781.63;;;2.93;97.56
26807;BME280;14380;49.910;6.792;2023-04-20T04:18:49;98777.16;;;2.98;98.08
26807;BME280;14380;49.910;6.792;2023-04-20T04:21:16;98771.66;;;3.09;94.97
26807;BME280;14380;49.910;6.792;2023-04-20T04:23:43;98774.88;;;2.84;98.02
26807;BME280;14380;49.910;6.792;2023-04-20T04:26:09;98775.28;;;3.03;98.91
26807;BME280;14380;49.910;6.792;2023-04-20T04:28:36;98777.31;;;3.26;96.40
26807;BME280;14380;49.910;6.792;2023-04-20T04:31:04;98775.94;;;3.11;98.07
26807;BME280;14380;49.910;6.792;2023-04-20T04:33:31;98774.66;;;3.28;96.65
26807;BME280;14380;49.910;6.792;2023-04-20T04:35:59;98774.72;;;3.26;94.78
26807;BME280;14380;49.910;6.792;2023-04-20T04:38:25;98770.19;;;3.33;96.49
26807;BME280;14380;49.910;6.792;2023-04-20T04:40:52;98770.03;;;3.39;95.12
26807;BME280;14380;49.910;6.792;2023-04-20T04:43:19;98770.47;;;3.22;97.00
26807;BME280;14380;49.910;6.792;2023-04-20T04:45:45;98772.59;;;3.41;97.83
26807;BME280;14380;49.910;6.792;2023-04-20T04:48:15;98777.94;;;3.36;98.38
26807;BME280;14380;49.910;6.792;2023-04-20T04:50:41;98771.53;;;3.48;99.26
26807;BME280;14380;49.910;6.792;2023-04-20T04:53:08;98772.16;;;3.58;97.00
26807;BME280;14380;49.910;6.792;2023-04-20T04:55:34;98768.00;;;3.16;99.51
26807;BME280;14380;49.910;6.792;2023-04-20T04:58:01;98765.78;;;3.35;100.00
26807;BME280;14380;49.910;6.792;2023-04-20T05:00:28;98767.41;;;3.05;99.58
26807;BME280;14380;49.910;6.792;2023-04-20T05:02:55;98765.00;;;3.32;98.27
26807;BME280;14380;49.910;6.792;2023-04-20T05:05:23;98760.19;;;3.51;98.31
26807;BME280;14380;49.910;6.792;2023-04-20T05:07:50;98751.06;;;3.66;94.76
26807;BME280;14380;49.910;6.792;2023-04-20T05:10:17;98757.84;;;3.73;96.97
26807;BME280;14380;49.910;6.792;2023-04-20T05:12:43;98762.06;;;3.77;99.72
26807;BME280;14380;49.910;6.792;2023-04-20T05:15:10;98760.09;;;3.85;97.67
26807;BME280;14380;49.910;6.792;2023-04-20T05:17:37;98754.69;;;3.92;97.34
26807;BME280;14380;49.910;6.792;2023-04-20T05:20:04;98760.56;;;4.00;99.92
26807;BME280;14380;49.910;6.792;2023-04-20T05:22:33;98756.16;;;3.70;99.75
26807;BME280;14380;49.910;6.792;2023-04-20T05:24:59;98757.56;;;3.82;99.35
26807;BME280;14380;49.910;6.792;2023-04-20T05:27:26;98756.28;;;3.66;100.00
26807;BME280;14380;49.910;6.792;2023-04-20T05:29:52;98760.44;;;4.05;98.39
26807;BME280;14380;49.910;6.792;2023-04-20T05:32:19;98766.88;;;4.23;93.97
26807;BME280;14380;49.910;6.792;2023-04-20T05:34:45;98769.13;;;4.35;93.83
26807;BME280;14380;49.910;6.792;2023-04-20T05:37:13;98762.66;;;4.49;92.33
26807;BME280;14380;49.910;6.792;2023-04-20T05:39:42;98763.19;;;4.60;90.20
26807;BME280;14380;49.910;6.792;2023-04-20T05:42:08;98764.84;;;4.63;91.15
26807;BME280;14380;49.910;6.792;2023-04-20T05:44:35;98773.66;;;4.87;91.42
26807;BME280;14380;49.910;6.792;2023-04-20T05:47:01;98773.56;;;4.90;91.27
26807;BME280;14380;49.910;6.792;2023-04-20T05:49:30;98770.34;;;4.82;92.10
26807;BME280;14380;49.910;6.792;2023-04-20T05:51:57;98774.03;;;5.03;92.96
26807;BME280;14380;49.910;6.792;2023-04-20T05:54:23;98779.00;;;5.11;92.21
26807;BME280;14380;49.910;6.792;2023-04-20T05:56:52;98779.22;;;5.04;93.18
26807;BME280;14380;49.910;6.792;2023-04-20T05:59:18;98780.03;;;5.06;93.97
26807;BME280;14380;49.910;6.792;2023-04-20T06:01:45;98779.59;;;5.19;92.34
26807;BME280;14380;49.910;6.792;2023-04-20T06:04:11;98778.78;;;5.18;93.28
26807;BME280;14380;49.910;6.792;2023-04-20T06:06:38;98771.75;;;5.19;93.85
26807;BME280;14380;49.910;6.792;2023-04-20T06:09:04;98784.09;;;5.15;94.93
26807;BME280;14380;49.910;6.792;2023-04-20T06:11:31;98771.72;;;5.20;96.76
26807;BME280;14380;49.910;6.792;2023-04-20T06:13:59;98780.47;;;5.19;97.60
26807;BME280;14380;49.910;6.792;2023-04-20T06:16:25;98787.78;;;5.36;99.49
26807;BME280;14380;49.910;6.792;2023-04-20T06:18:52;98776.19;;;5.44;97.03
26807;BME280;14380;49.910;6.792;2023-04-20T06:21:18;98787.88;;;5.33;99.96
26807;BME280;14380;49.910;6.792;2023-04-20T06:23:45;98786.56;;;5.20;100.00
26807;BME280;14380;49.910;6.792;2023-04-20T06:26:11;98783.44;;;5.09;100.00
26807;BME280;14380;49.910;6.792;2023-04-20T06:28:38;98782.13;;;5.22;100.00
26807;BME280;14380;49.910;6.792;2023-04-20T06:31:06;98779.81;;;5.40;100.00
26807;BME280;14380;49.910;6.792;2023-04-20T06:33:32;98786.16;;;5.32;100.00
26807;BME280;14380;49.910;6.792;2023-04-20T06:35:59;98780.28;;;5.26;100.00
26807;BME280;14380;49.910;6.792;2023-04-20T06:38:25;98780.47;;;5.19;100.00
26807;BME280;14380;49.910;6.792;2023-04-20T06:40:52;98788.44;;;5.16;100.00
26807;BME280;14380;49.910;6.792;2023-04-20T06:43:18;98785.56;;;4.97;100.00
26807;BME280;14380;49.910;6.792;2023-04-20T06:45:45;98788.56;;;4.85;100.00
26807;BME280;14380;49.910;6.792;2023-04-20T06:48:13;98781.97;;;4.71;100.00
26807;BME280;14380;49.910;6.792;2023-04-20T06:50:39;98776.09;;;4.93;100.00
26807;BME280;14380;49.910;6.792;2023-04-20T06:53:06;98779.34;;;4.73;100.00
26807;BME280;14380;49.910;6.792;2023-04-20T06:55:32;98776.00;;;4.96;100.00
26807;BME280;14380;49.910;6.792;2023-04-20T06:57:59;98774.91;;;5.03;100.00
26807;BME280;14380;49.910;6.792;2023-04-20T07:00:25;98764.72;;;5.21;100.00
26807;BME280;14380;49.910;6.792;2023-04-20T07:02:52;98766.38;;;4.97;100.00
26807;BME280;14380;49.910;6.792;2023-04-20T07:05:20;98762.75;;;5.28;100.00
26807;BME280;14380;49.910;6.792;2023-04-20T07:07:47;98759.81;;;5.37;100.00
26807;BME280;14380;49.910;6.792;2023-04-20T07:10:14;98758.06;;;5.38;100.00
26807;BME280;14380;49.910;6.792;2023-04-20T07:12:41;98759.38;;;5.51;100.00
26807;BME280;14380;49.910;6.792;2023-04-20T07:15:08;98764.63;;;5.24;100.00
26807;BME280;14380;49.910;6.792;2023-04-20T07:17:35;98762.97;;;5.21;100.00
26807;BME280;14380;49.910;6.792;2023-04-20T07:20:02;98759.72;;;5.40;100.00
26807;BME280;14380;49.910;6.792;2023-04-20T07:22:32;98760.44;;;5.18;100.00
26807;BME280;14380;49.910;6.792;2023-04-20T07:25:00;98759.81;;;5.37;100.00
26807;BME280;14380;49.910;6.792;2023-04-20T07:27:27;98766.28;;;5.00;100.00
26807;BME280;14380;49.910;6.792;2023-04-20T07:29:55;98763.84;;;4.94;100.00
26807;BME280;14380;49.910;6.792;2023-04-20T07:32:21;98755.03;;;5.23;100.00
26807;BME280;14380;49.910;6.792;2023-04-20T07:34:50;98760.19;;;5.26;100.00
26807;BME280;14380;49.910;6.792;2023-04-20T07:37:16;98758.03;;;5.12;100.00
26807;BME280;14380;49.910;6.792;2023-04-20T07:39:44;98762.97;;;5.21;100.00
26807;BME280;14380;49.910;6.792;2023-04-20T07:42:11;98757.88;;;5.17;100.00
26807;BME280;14380;49.910;6.792;2023-04-20T07:44:37;98757.16;;;5.39;100.00
26807;BME280;14380;49.910;6.792;2023-04-20T07:47:04;98756.19;;;5.41;100.00
26807;BME280;14380;49.910;6.792;2023-04-20T07:49:30;98763.56;;;5.55;100.00
26807;BME280;14380;49.910;6.792;2023-04-20T07:51:56;98757.97;;;5.66;100.00
26807;BME280;14380;49.910;6.792;2023-04-20T07:54:23;98755.88;;;5.76;100.00
26807;BME280;14380;49.910;6.792;2023-04-20T07:56:51;98762.28;;;5.92;100.00
26807;BME280;14380;49.910;6.792;2023-04-20T07:59:17;98752.16;;;5.81;100.00
26807;BME280;14380;49.910;6.792;2023-04-20T08:01:44;98754.16;;;6.00;100.00
26807;BME280;14380;49.910;6.792;2023-04-20T08:04:10;98752.63;;;5.69;100.00
26807;BME280;14380;49.910;6.792;2023-04-20T08:06:37;98760.91;;;5.57;100.00
26807;BME280;14380;49.910;6.792;2023-04-20T08:09:03;98744.94;;;5.88;100.00
26807;BME280;14380;49.910;6.792;2023-04-20T08:11:30;98741.56;;;6.10;100.00
26807;BME280;14380;49.910;6.792;2023-04-20T08:13:58;98747.13;;;6.01;100.00
26807;BME280;14380;49.910;6.792;2023-04-20T08:16:24;98742.69;;;6.03;100.00
26807;BME280;14380;49.910;6.792;2023-04-20T08:18:51;98740.97;;;6.02;100.00
26807;BME280;14380;49.910;6.792;2023-04-20T08:21:17;98743.16;;;6.14;100.00
26807;BME280;14380;49.910;6.792;2023-04-20T08:23:46;98740.13;;;6.25;100.00
26807;BME280;14380;49.910;6.792;2023-04-20T08:26:13;98742.94;;;6.20;100.00
26807;BME280;14380;49.910;6.792;2023-04-20T08:28:40;98739.47;;;6.42;100.00
26807;BME280;14380;49.910;6.792;2023-04-20T08:31:10;98743.13;;;6.16;100.00
26807;BME280;14380;49.910;6.792;2023-04-20T08:33:37;98738.03;;;6.11;100.00
26807;BME280;14380;49.910;6.792;2023-04-20T08:36:04;98730.66;;;6.21;100.00
26807;BME280;14380;49.910;6.792;2023-04-20T08:38:30;98727.03;;;6.00;100.00
26807;BME280;14380;49.910;6.792;2023-04-20T08:40:57;98726.94;;;6.04;100.00
26807;BME280;14380;49.910;6.792;2023-04-20T08:43:24;98728.41;;;6.12;100.00
26807;BME280;14380;49.910;6.792;2023-04-20T08:45:51;98727.16;;;5.73;100.00
26807;BME280;14380;49.910;6.792;2023-04-20T08:48:23;98726.97;;;6.03;100.00
26807;BME280;14380;49.910;6.792;2023-04-20T08:50:50;98730.34;;;6.06;100.00
26807;BME280;14380;49.910;6.792;2023-04-20T08:53:16;98726.66;;;6.34;100.00
26807;BME280;14380;49.910;6.792;2023-04-20T08:55:43;98730.91;;;6.15;100.00
26807;BME280;14380;49.910;6.792;2023-04-20T08:58:10;98734.28;;;5.69;100.00
26807;BME280;14380;49.910;6.792;2023-04-20T09:00:44;98724.03;;;5.87;100.00
26807;BME280;14380;49.910;6.792;2023-04-20T09:03:12;98724.91;;;5.87;100.00
26807;BME280;14380;49.910;6.792;2023-04-20T09:05:40;98719.28;;;6.44;100.00
26807;BME280;14380;49.910;6.792;2023-04-20T09:08:07;98713.63;;;6.77;100.00
26807;BME280;14380;49.910;6.792;2023-04-20T09:10:39;98716.66;;;6.44;100.00
26807;BME280;14380;49.910;6.792;2023-04-20T09:13:07;98717.97;;;6.78;100.00
26807;BME280;14380;49.910;6.792;2023-04-20T09:15:33;98709.09;;;6.81;100.00
26807;BME280;14380;49.910;6.792;2023-04-20T09:18:10;98711.75;;;6.59;100.00
26807;BME280;14380;49.910;6.792;2023-04-20T09:20:37;98714.84;;;6.46;100.00
26807;BME280;14380;49.910;6.792;2023-04-20T09:23:11;98712.72;;;6.56;100.00
26807;BME280;14380;49.910;6.792;2023-04-20T09:25:39;98715.84;;;6.20;100.00
26807;BME280;14380;49.910;6.792;2023-04-20T09:28:07;98716.19;;;6.34;100.00
26807;BME280;14380;49.910;6.792;2023-04-20T09:30:38;98713.63;;;6.09;100.00
26807;BME280;14380;49.910;6.792;2023-04-20T09:33:05;98709.72;;;6.65;100.00
26807;BME280;14380;49.910;6.792;2023-04-20T09:35:35;98715.34;;;6.34;100.00
26807;BME280;14380;49.910;6.792;2023-04-20T09:38:02;98707.56;;;6.08;100.00
26807;BME280;14380;49.910;6.792;2023-04-20T09:40:31;98709.19;;;6.11;100.00
26807;BME280;14380;49.910;6.792;2023-04-20T09:42:58;98712.41;;;6.64;100.00
26807;BME280;14380;49.910;6.792;2023-04-20T09:45:28;98705.47;;;6.63;100.00
26807;BME280;14380;49.910;6.792;2023-04-20T09:47:56;98703.22;;;6.96;100.00
26807;BME280;14380;49.910;6.792;2023-04-20T09:50:22;98704.06;;;6.97;100.00
26807;BME280;14380;49.910;6.792;2023-04-20T09:52:51;98701.16;;;7.05;100.00
26807;BME280;14380;49.910;6.792;2023-04-20T09:55:18;98697.00;;;7.40;100.00
26807;BME280;14380;49.910;6.792;2023-04-20T09:57:47;98693.13;;;7.08;100.00
26807;BME280;14380;49.910;6.792;2023-04-20T10:00:15;98690.00;;;7.41;100.00
26807;BME280;14380;49.910;6.792;2023-04-20T10:02:45;98695.97;;;7.84;100.00
26807;BME280;14380;49.910;6.792;2023-04-20T10:05:12;98691.13;;;7.54;100.00
26807;BME280;14380;49.910;6.792;2023-04-20T10:07:38;98691.53;;;7.66;100.00
26807;BME280;14380;49.910;6.792;2023-04-20T10:10:08;98689.06;;;7.42;100.00
26807;BME280;14380;49.910;6.792;2023-04-20T10:12:47;98684.06;;;7.76;100.00
26807;BME280;14380;49.910;6.792;2023-04-20T10:15:14;98689.06;;;7.42;100.00
26807;BME280;14380;49.910;6.792;2023-04-20T10:17:41;98688.34;;;7.18;100.00
26807;BME280;14380;49.910;6.792;2023-04-20T10:20:17;98684.03;;;7.56;100.00
26807;BME280;14380;49.910;6.792;2023-04-20T10:22:44;98680.97;;;7.47;100.00
26807;BME280;14380;49.910;6.792;2023-04-20T10:25:16;98676.53;;;7.68;100.00
26807;BME280;14380;49.910;6.792;2023-04-20T10:27:53;98675.78;;;7.85;100.00
26807;BME280;14380;49.910;6.792;2023-04-20T10:30:21;98676.00;;;7.99;100.00
26807;BME280;14380;49.910;6.792;2023-04-20T10:32:48;98673.25;;;7.63;100.00
26807;BME280;14380;49.910;6.792;2023-04-20T10:35:15;98682.16;;;7.39;100.00
26807;BME280;14380;49.910;6.792;2023-04-20T10:37:49;98675.47;;;7.53;100.00
26807;BME280;14380;49.910;6.792;2023-04-20T10:40:15;98674.94;;;7.44;100.00
26807;BME280;14380;49.910;6.792;2023-04-20T10:42:42;98675.50;;;7.91;100.00
26807;BME280;14380;49.910;6.792;2023-04-20T10:45:11;98681.69;;;7.90;99.31
26807;BME280;14380;49.910;6.792;2023-04-20T10:47:37;98679.34;;;8.03;100.00
26807;BME280;14380;49.910;6.792;2023-04-20T10:50:07;98675.63;;;7.69;100.00
26807;BME280;14380;49.910;6.792;2023-04-20T10:52:34;98674.88;;;8.05;100.00
26807;BME280;14380;49.910;6.792;2023-04-20T10:55:01;98677.84;;;8.16;100.00
26807;BME280;14380;49.910;6.792;2023-04-20T10:57:28;98676.13;;;8.34;99.27
26807;BME280;14380;49.910;6.792;2023-04-20T10:59:54;98678.50;;;7.83;96.90
26807;BME280;14380;49.910;6.792;2023-04-20T11:02:22;98677.63;;;8.21;99.97
26807;BME280;14380;49.910;6.792;2023-04-20T11:04:49;98674.38;;;8.35;100.00
26807;BME280;14380;49.910;6.792;2023-04-20T11:07:15;98670.19;;;8.31;97.27
26807;BME280;14380;49.910;6.792;2023-04-20T11:09:43;98669.13;;;8.16;98.47
26807;BME280;14380;49.910;6.792;2023-04-20T11:12:10;98667.69;;;8.28;100.00
26807;BME280;14380;49.910;6.792;2023-04-20T11:14:51;98665.53;;;7.79;99.63
26807;BME280;14380;49.910;6.792;2023-04-20T11:17:18;98671.31;;;7.87;100.00
26807;BME280;14380;49.910;6.792;2023-04-20T11:19:46;98662.13;;;7.96;100.00
26807;BME280;14380;49.910;6.792;2023-04-20T11:22:20;98664.56;;;8.19;100.00
26807;BME280;14380;49.910;6.792;2023-04-20T11:24:47;98656.50;;;8.42;100.00
26807;BME280;14380;49.910;6.792;2023-04-20T11:27:18;98637.84;;;8.46;100.00
26807;BME280;14380;49.910;6.792;2023-04-20T11:29:55;98634.75;;;8.75;100.00
26807;BME280;14380;49.910;6.792;2023-04-20T11:32:22;98630.25;;;8.59;100.00
26807;BME280;14380;49.910;6.792;2023-04-20T11:34:58;98625.28;;;8.71;100.00
26807;BME280;14380;49.910;6.792;2023-04-20T11:37:27;98622.75;;;8.87;100.00
26807;BME280;14380;49.910;6.792;2023-04-20T11:40:00;98618.03;;;8.76;99.41
26807;BME280;14380;49.910;6.792;2023-04-20T11:42:28;98607.25;;;9.16;100.00
26807;BME280;14380;49.910;6.792;2023-04-20T11:44:55;98609.19;;;8.77;100.00
26807;BME280;14380;49.910;6.792;2023-04-20T11:47:21;98611.63;;;8.45;99.51
26807;BME280;14380;49.910;6.792;2023-04-20T11:49:48;98603.25;;;8.37;98.78
26807;BME280;14380;49.910;6.792;2023-04-20T11:52:16;98600.63;;;7.81;100.00
26807;BME280;14380;49.910;6.792;2023-04-20T11:54:42;98594.53;;;7.80;100.00
26807;BME280;14380;49.910;6.792;2023-04-20T11:57:09;98588.00;;;8.26;100.00
26807;BME280;14380;49.910;6.792;2023-04-20T11:59:36;98589.22;;;8.18;96.75
26807;BME280;14380;49.910;6.792;2023-04-20T12:02:02;98587.91;;;8.64;100.00
26807;BME280;14380;49.910;6.792;2023-04-20T12:04:29;98575.88;;;9.11;98.78
26807;BME280;14380;49.910;6.792;2023-04-20T12:06:57;98577.88;;;8.36;99.47
26807;BME280;14380;49.910;6.792;2023-04-20T12:09:24;98578.22;;;9.00;95.32
26807;BME280;14380;49.910;6.792;2023-04-20T12:11:51;98574.38;;;8.54;93.10
26807;BME280;14380;49.910;6.792;2023-04-20T12:14:18;98571.63;;;8.91;90.07
26807;BME280;14380;49.910;6.792;2023-04-20T12:16:44;98568.94;;;8.92;91.65
26807;BME280;14380;49.910;6.792;2023-04-20T12:19:11;98561.16;;;9.73;92.96
26807;BME280;14380;49.910;6.792;2023-04-20T12:21:37;98554.56;;;9.65;89.33
26807;BME280;14380;49.910;6.792;2023-04-20T12:24:04;98557.84;;;9.53;89.76
26807;BME280;14380;49.910;6.792;2023-04-20T12:26:32;98558.38;;;9.76;89.59
26807;BME280;14380;49.910;6.792;2023-04-20T12:29:00;98564.94;;;10.01;89.71
26807;BME280;14380;49.910;6.792;2023-04-20T12:31:26;98565.66;;;10.19;89.50
26807;BME280;14380;49.910;6.792;2023-04-20T12:33:53;98566.88;;;9.65;85.80
26807;BME280;14380;49.910;6.792;2023-04-20T12:36:19;98562.25;;;10.33;89.98
26807;BME280;14380;49.910;6.792;2023-04-20T12:38:46;98556.06;;;10.64;87.54
26807;BME280;14380;49.910;6.792;2023-04-20T12:41:12;98546.91;;;10.55;85.29
26807;BME280;14380;49.910;6.792;2023-04-20T12:43:42;98551.97;;;10.28;85.49
26807;BME280;14380;49.910;6.792;2023-04-20T12:46:08;98542.09;;;10.62;83.79
26807;BME280;14380;49.910;6.792;2023-04-20T12:48:35;98541.03;;;11.10;81.62
26807;BME280;14380;49.910;6.792;2023-04-20T12:51:01;98546.22;;;10.97;82.45
26807;BME280;14380;49.910;6.792;2023-04-20T12:53:28;98537.19;;;11.01;82.76
26807;BME280;14380;49.910;6.792;2023-04-20T12:55:54;98533.47;;;11.33;82.67
26807;BME280;14380;49.910;6.792;2023-04-20T12:58:20;98541.78;;;11.41;82.50
26807;BME280;14380;49.910;6.792;2023-04-20T13:00:48;98541.69;;;10.99;76.46
26807;BME280;14380;49.910;6.792;2023-04-20T13:03:15;98539.78;;;11.59;82.53
26807;BME280;14380;49.910;6.792;2023-04-20T13:05:41;98523.66;;;11.49;74.88